createdAt,value
2023-02-05T04:12:49.592Z,4.10
2023-02-05T04:15:19.218Z,4.50
2023-02-05T04:17:51.557Z,4.10
2023-02-05T04:20:20.888Z,4.80
2023-02-05T04:22:49.222Z,5.00
2023-02-05T04:25:17.681Z,4.30
2023-02-05T04:27:48.032Z,4.47
2023-02-05T04:30:16.680Z,4.20
2023-02-05T04:32:46.865Z,4.63
2023-02-05T04:35:17.890Z,4.80
2023-02-05T04:37:48.142Z,4.50
2023-02-05T04:40:18.854Z,4.80
2023-02-05T04:42:48.498Z,5.00
2023-02-05T04:45:16.878Z,4.67
2023-02-05T04:47:45.060Z,5.00
2023-02-05T04:50:13.269Z,5.63
2023-02-05T04:52:41.452Z,4.37
2023-02-05T04:55:09.818Z,4.10
2023-02-05T04:57:38.325Z,4.93
2023-02-05T05:00:09.324Z,4.73
2023-02-05T05:02:37.580Z,4.70
2023-02-05T05:05:07.139Z,4.63
2023-02-05T05:07:35.341Z,4.97
2023-02-05T05:10:03.595Z,5.57
2023-02-05T05:12:31.808Z,5.43
2023-02-05T05:15:00.049Z,5.10
2023-02-05T05:17:29.791Z,5.27
2023-02-05T05:19:57.982Z,4.47
2023-02-05T05:22:26.198Z,5.27
2023-02-05T05:24:54.421Z,4.77
2023-02-05T05:27:23.227Z,5.20
2023-02-05T05:29:51.402Z,4.63
2023-02-05T05:32:19.648Z,4.87
2023-02-05T05:34:49.254Z,5.47
2023-02-05T05:37:17.473Z,4.70
2023-02-05T05:40:02.876Z,4.87
2023-02-05T05:42:48.351Z,5.00
2023-02-05T05:45:16.721Z,5.80
2023-02-05T05:47:45.178Z,5.97
2023-02-05T05:50:14.940Z,6.63
2023-02-05T05:52:43.198Z,5.93
2023-02-05T05:55:11.426Z,7.50
2023-02-05T05:57:39.635Z,7.73
2023-02-05T06:00:08.702Z,5.90
2023-02-05T06:02:44.762Z,5.87
2023-02-05T06:05:14.525Z,6.07
2023-02-05T06:07:42.787Z,5.73
2023-02-05T06:10:11.361Z,5.90
2023-02-05T06:12:39.582Z,5.40
2023-02-05T06:15:08.855Z,5.33
2023-02-05T06:17:37.107Z,5.17
2023-02-05T06:20:05.755Z,5.07
2023-02-05T06:22:35.906Z,4.87
2023-02-05T06:25:04.626Z,4.93
2023-02-05T06:27:33.123Z,4.80
2023-02-05T06:30:01.361Z,4.90
2023-02-05T06:32:29.652Z,4.83
2023-02-05T06:34:57.984Z,5.17
2023-02-05T06:37:34.162Z,5.30
2023-02-05T06:40:09.070Z,5.10
2023-02-05T06:42:37.239Z,4.63
2023-02-05T06:45:05.947Z,5.00
2023-02-05T06:47:34.177Z,5.50
2023-02-05T06:50:02.434Z,5.07
2023-02-05T06:52:31.322Z,5.70
2023-02-05T06:54:59.506Z,5.07
2023-02-05T06:57:29.119Z,4.87
2023-02-05T06:59:57.313Z,5.37
2023-02-05T07:02:25.798Z,5.37
2023-02-05T07:04:54.139Z,5.30
2023-02-05T07:07:22.501Z,4.90
2023-02-05T07:09:50.743Z,5.73
2023-02-05T07:12:19.026Z,6.10
2023-02-05T07:14:48.812Z,6.93
2023-02-05T07:17:17.082Z,6.67
2023-02-05T07:19:45.287Z,7.33
2023-02-05T07:22:14.669Z,7.77
2023-02-05T07:24:43.941Z,6.37
2023-02-05T07:27:12.144Z,6.73
2023-02-05T07:29:40.398Z,6.33
2023-02-05T07:32:10.094Z,5.47
2023-02-05T07:34:38.608Z,5.43
2023-02-05T07:37:06.805Z,5.43
2023-02-05T07:39:35.057Z,4.73
2023-02-05T07:42:03.252Z,5.07
2023-02-05T07:44:39.636Z,4.20
2023-02-05T07:47:09.398Z,4.23
2023-02-05T07:49:37.684Z,4.03
2023-02-05T07:52:06.285Z,4.20
2023-02-05T07:54:34.609Z,4.13
2023-02-05T07:57:05.389Z,3.87
2023-02-05T07:59:35.176Z,4.80
2023-02-05T08:02:03.417Z,4.47
2023-02-05T08:04:33.392Z,4.93
2023-02-05T08:07:02.025Z,4.63
2023-02-05T08:09:37.537Z,4.63
2023-02-05T08:12:08.702Z,4.17
2023-02-05T08:14:37.728Z,4.23
2023-02-05T08:17:08.823Z,4.17
2023-02-05T08:19:38.806Z,3.63
2023-02-05T08:22:07.201Z,4.17
2023-02-05T08:24:35.486Z,4.97
2023-02-05T08:27:03.784Z,4.17
2023-02-05T08:29:32.203Z,4.70
2023-02-05T08:32:00.425Z,4.30
2023-02-05T08:34:28.630Z,4.80
2023-02-05T08:36:58.364Z,4.43
2023-02-05T08:39:28.606Z,4.27
2023-02-05T08:42:00.102Z,5.70
2023-02-05T08:44:31.876Z,5.40
2023-02-05T08:47:00.303Z,5.37
2023-02-05T08:49:28.597Z,5.13
2023-02-05T08:52:03.334Z,4.87
2023-02-05T08:54:31.758Z,4.47
2023-02-05T08:57:00.221Z,4.40
2023-02-05T08:59:28.950Z,4.60
2023-02-05T09:01:59.290Z,4.27
2023-02-05T09:04:27.858Z,4.03
2023-02-05T09:06:57.697Z,3.77
2023-02-05T09:09:27.374Z,4.40
2023-02-05T09:11:55.843Z,3.80
2023-02-05T09:14:27.740Z,3.70
2023-02-05T09:16:56.189Z,3.80
2023-02-05T09:19:24.405Z,3.77
2023-02-05T09:21:54.198Z,3.70
2023-02-05T09:24:24.351Z,3.97
2023-02-05T09:26:52.636Z,3.47
2023-02-05T09:29:20.965Z,3.57
2023-02-05T09:31:49.317Z,3.00
2023-02-05T09:34:17.610Z,2.57
2023-02-05T09:36:45.872Z,2.70
2023-02-05T09:39:25.655Z,2.10
2023-02-05T09:42:13.516Z,1.57
2023-02-05T09:44:52.773Z,2.10
2023-02-05T09:47:25.075Z,1.70
2023-02-05T09:50:00.399Z,2.10
2023-02-05T09:52:34.919Z,2.10
2023-02-05T09:55:07.706Z,1.60
2023-02-05T09:57:39.625Z,2.03
2023-02-05T10:00:20.113Z,2.80
2023-02-05T10:02:51.869Z,3.10
2023-02-05T10:05:24.107Z,3.33
2023-02-05T10:08:01.990Z,3.67
2023-02-05T10:10:41.074Z,3.40
2023-02-05T10:13:31.835Z,3.20
2023-02-05T10:16:24.708Z,3.13
2023-02-05T10:19:26.300Z,3.07
2023-02-05T10:22:12.108Z,3.40
2023-02-05T10:25:09.551Z,3.50
2023-02-05T10:27:45.135Z,2.67
2023-02-05T10:30:23.250Z,2.80
2023-02-05T10:32:58.772Z,3.47
2023-02-05T10:35:33.213Z,3.13
2023-02-05T10:38:03.281Z,2.73
2023-02-05T10:40:35.604Z,2.80
2023-02-05T10:43:15.432Z,2.97
2023-02-05T10:45:45.721Z,3.30
2023-02-05T10:48:27.193Z,3.07
2023-02-05T10:51:01.018Z,3.27
2023-02-05T10:53:30.914Z,3.37
2023-02-05T10:56:00.660Z,4.37
2023-02-05T10:58:46.544Z,3.50
2023-02-05T11:01:19.514Z,4.37
2023-02-05T11:03:55.014Z,3.77
2023-02-05T11:06:26.411Z,3.87
2023-02-05T11:08:55.235Z,4.27
2023-02-05T11:11:28.012Z,4.63
2023-02-05T11:13:58.778Z,5.17
2023-02-05T11:16:38.713Z,5.10
2023-02-05T11:19:20.214Z,4.17
2023-02-05T11:21:51.802Z,5.30
2023-02-05T11:24:31.939Z,4.90
2023-02-05T11:27:42.958Z,6.63
2023-02-05T11:30:49.503Z,5.03
2023-02-05T11:33:26.090Z,4.00
2023-02-05T11:35:57.262Z,4.40
2023-02-05T11:38:39.967Z,15.10
2023-02-05T11:41:10.029Z,17.80
2023-02-05T11:43:41.890Z,4.87
2023-02-05T11:46:15.400Z,6.17
2023-02-05T11:48:47.313Z,16.27
2023-02-05T11:51:28.560Z,10.77
2023-02-05T11:53:59.592Z,10.67
2023-02-05T11:56:30.014Z,4.67
2023-02-05T11:59:02.908Z,5.00
2023-02-05T12:01:34.695Z,4.13
2023-02-05T12:04:15.126Z,5.93
2023-02-05T12:06:49.081Z,5.23
2023-02-05T12:09:21.413Z,5.70
2023-02-05T12:12:15.701Z,7.60
2023-02-05T12:14:48.133Z,6.03
2023-02-05T12:17:34.412Z,7.10
2023-02-05T12:20:16.667Z,5.90
2023-02-05T12:23:08.601Z,6.10
2023-02-05T12:25:45.490Z,5.77
2023-02-05T12:28:32.399Z,5.63
2023-02-05T12:31:11.122Z,5.10
2023-02-05T12:34:02.072Z,6.63
2023-02-05T12:36:58.314Z,14.37
2023-02-05T12:39:39.520Z,4.20
2023-02-05T12:42:18.076Z,3.50
2023-02-05T12:44:59.667Z,3.63
2023-02-05T12:48:02.620Z,5.33
2023-02-05T12:50:58.469Z,3.80
2023-02-05T12:53:40.379Z,5.40
2023-02-05T12:56:33.002Z,4.37
2023-02-05T12:59:03.492Z,6.27
2023-02-05T13:01:39.378Z,5.20
2023-02-05T13:04:13.850Z,6.43
2023-02-05T13:06:49.525Z,6.47
2023-02-05T13:09:23.911Z,4.50
2023-02-05T13:11:57.531Z,4.57
2023-02-05T13:14:31.201Z,8.17
2023-02-05T13:17:04.279Z,6.83
2023-02-05T13:19:36.373Z,7.63
2023-02-05T13:22:30.879Z,5.83
2023-02-05T13:25:37.339Z,4.57
2023-02-05T13:28:45.612Z,3.90
2023-02-05T13:31:26.874Z,4.07
2023-02-05T13:33:57.643Z,4.47
2023-02-05T13:36:58.578Z,4.40
2023-02-05T13:40:05.534Z,4.37
2023-02-05T13:43:00.000Z,4.60
2023-02-05T13:46:01.084Z,4.60
2023-02-05T13:49:02.182Z,3.50
2023-02-05T13:51:47.912Z,3.77
2023-02-05T13:54:49.819Z,4.43
2023-02-05T13:57:47.675Z,3.97
2023-02-05T14:00:16.478Z,3.90
2023-02-05T14:02:48.134Z,3.03
2023-02-05T14:05:17.822Z,3.13
2023-02-05T14:07:47.805Z,4.27
2023-02-05T14:10:27.982Z,4.47
2023-02-05T14:13:13.845Z,3.57
2023-02-05T14:15:44.009Z,4.40
2023-02-05T14:18:15.752Z,4.33
2023-02-05T14:20:45.762Z,3.70
2023-02-05T14:23:15.985Z,3.57
2023-02-05T14:26:06.920Z,7.60
2023-02-05T14:28:44.356Z,5.77
2023-02-05T14:31:46.758Z,5.33
2023-02-05T14:34:49.614Z,4.47
2023-02-05T14:37:38.480Z,5.60
2023-02-05T14:40:22.176Z,5.57
2023-02-05T14:42:53.308Z,4.50
2023-02-05T14:45:24.546Z,4.60
2023-02-05T14:47:53.724Z,4.33
2023-02-05T14:50:27.784Z,4.17
2023-02-05T14:52:59.601Z,4.77
2023-02-05T14:55:32.559Z,4.57
2023-02-05T14:58:04.346Z,4.80
2023-02-05T15:00:35.533Z,6.17
2023-02-05T15:03:26.344Z,5.17
2023-02-05T15:06:00.172Z,4.87
2023-02-05T15:08:42.963Z,7.57
2023-02-05T15:11:18.430Z,10.60
2023-02-05T15:14:20.177Z,7.00
2023-02-05T15:16:48.746Z,14.73
2023-02-05T15:19:19.605Z,11.70
2023-02-05T15:21:52.026Z,11.40
2023-02-05T15:24:22.300Z,10.33
2023-02-05T15:26:54.539Z,13.37
2023-02-05T15:29:27.455Z,10.20
2023-02-05T15:31:59.827Z,13.27
2023-02-05T15:34:39.020Z,14.17
2023-02-05T15:37:19.558Z,9.50
2023-02-05T15:39:52.464Z,12.07
2023-02-05T15:42:25.415Z,10.67
2023-02-05T15:44:53.719Z,12.00
2023-02-05T15:47:24.099Z,7.97
2023-02-05T15:49:56.929Z,8.60
2023-02-05T15:52:29.414Z,9.80
2023-02-05T15:55:00.559Z,9.10
2023-02-05T15:57:31.428Z,12.87
2023-02-05T16:00:01.602Z,13.03
2023-02-05T16:02:32.722Z,9.57
2023-02-05T16:05:04.023Z,11.53
2023-02-05T16:07:41.231Z,11.03
2023-02-05T16:10:18.318Z,10.07
2023-02-05T16:12:59.494Z,8.90
2023-02-05T16:15:31.986Z,9.60
2023-02-05T16:18:04.641Z,9.13
2023-02-05T16:20:36.613Z,8.83
2023-02-05T16:23:08.869Z,9.87
2023-02-05T16:25:44.981Z,11.30
2023-02-05T16:28:18.533Z,11.40
2023-02-05T16:30:48.642Z,12.77
2023-02-05T16:33:27.950Z,11.87
2023-02-05T16:35:58.624Z,10.70
2023-02-05T16:38:28.752Z,9.93
2023-02-05T16:41:00.119Z,11.67
2023-02-05T16:43:33.048Z,11.20
2023-02-05T16:46:26.358Z,9.83
2023-02-05T16:48:56.901Z,9.33
2023-02-05T16:52:00.844Z,9.40
2023-02-05T16:54:33.214Z,10.97
2023-02-05T16:57:06.736Z,10.87
2023-02-05T16:59:38.596Z,11.37
2023-02-05T17:02:07.748Z,11.47
2023-02-05T17:04:38.930Z,13.53
2023-02-05T17:07:20.119Z,14.80
2023-02-05T17:09:51.192Z,13.57
2023-02-05T17:12:39.841Z,12.87
2023-02-05T17:15:41.560Z,13.30
2023-02-05T17:18:22.304Z,16.20
2023-02-05T17:20:50.573Z,14.90
2023-02-05T17:23:19.408Z,15.67
2023-02-05T17:25:56.893Z,15.77
2023-02-05T17:28:27.684Z,16.40
2023-02-05T17:30:58.828Z,19.47
2023-02-05T17:33:29.249Z,19.27
2023-02-05T17:35:57.519Z,18.93
2023-02-05T17:38:25.817Z,18.13
2023-02-05T17:41:15.478Z,20.43
2023-02-05T17:43:43.789Z,18.63
2023-02-05T17:46:13.991Z,15.77
2023-02-05T17:48:44.601Z,15.33
2023-02-05T17:51:19.660Z,15.47
2023-02-05T17:53:48.042Z,16.00
2023-02-05T17:56:19.267Z,16.83
2023-02-05T17:58:48.045Z,19.27
2023-02-05T18:01:16.570Z,21.60
2023-02-05T18:03:44.876Z,17.27
2023-02-05T18:06:15.300Z,18.30
2023-02-05T18:08:43.982Z,15.27
2023-02-05T18:11:12.302Z,15.37
2023-02-05T18:13:42.317Z,12.50
2023-02-05T18:16:12.290Z,10.47
2023-02-05T18:18:41.079Z,14.57
2023-02-05T18:21:09.395Z,14.67
2023-02-05T18:23:37.745Z,14.77
2023-02-05T18:26:08.317Z,13.73
2023-02-05T18:28:39.924Z,12.47
2023-02-05T18:31:11.275Z,13.53
2023-02-05T18:33:43.019Z,12.87
2023-02-05T18:36:17.438Z,14.20
2023-02-05T18:38:46.280Z,14.20
2023-02-05T18:41:25.380Z,15.67
2023-02-05T18:43:55.868Z,14.77
2023-02-05T18:46:26.939Z,16.87
2023-02-05T18:48:56.376Z,20.00
2023-02-05T18:51:27.056Z,21.43
2023-02-05T18:53:55.782Z,19.57
2023-02-05T18:56:28.885Z,19.90
2023-02-05T18:59:02.441Z,23.87
2023-02-05T19:01:36.555Z,26.63
2023-02-05T19:04:10.694Z,39.73
2023-02-05T19:06:42.257Z,38.13
2023-02-05T19:09:13.487Z,31.70
2023-02-05T19:11:46.359Z,27.67
2023-02-05T19:14:22.628Z,29.70
2023-02-05T19:16:55.956Z,29.57
2023-02-05T19:19:27.166Z,32.93
2023-02-05T19:22:06.428Z,30.13
2023-02-05T19:24:36.225Z,29.27
2023-02-05T19:27:07.939Z,30.10
2023-02-05T19:29:40.146Z,29.13
2023-02-05T19:32:13.742Z,27.53
2023-02-05T19:34:43.435Z,26.97
2023-02-05T19:37:14.816Z,25.30
2023-02-05T19:39:43.747Z,25.97
2023-02-05T19:42:12.293Z,24.77
2023-02-05T19:44:43.814Z,24.10
2023-02-05T19:47:13.676Z,24.10
2023-02-05T19:49:42.185Z,23.73
2023-02-05T19:52:18.623Z,23.43
2023-02-05T19:54:49.485Z,23.53
2023-02-05T19:57:20.568Z,26.40
2023-02-05T19:59:49.524Z,28.83
2023-02-05T20:02:20.672Z,27.37
2023-02-05T20:04:52.264Z,27.80
2023-02-05T20:07:20.831Z,29.63
2023-02-05T20:09:52.327Z,30.73
2023-02-05T20:12:23.571Z,30.87
2023-02-05T20:14:54.913Z,33.07
2023-02-05T20:17:27.509Z,34.17
2023-02-05T20:20:10.133Z,33.70
2023-02-05T20:22:46.335Z,32.33
2023-02-05T20:25:15.087Z,31.83
2023-02-05T20:27:43.599Z,30.53
2023-02-05T20:30:32.683Z,30.07
2023-02-05T20:33:02.455Z,29.40
2023-02-05T20:35:30.724Z,31.93
2023-02-05T20:37:58.957Z,31.70
2023-02-05T20:40:27.170Z,33.23
2023-02-05T20:42:55.402Z,33.63
2023-02-05T20:45:24.072Z,33.63
2023-02-05T20:47:52.384Z,35.33
2023-02-05T20:50:22.101Z,33.50
2023-02-05T20:52:50.381Z,30.13
2023-02-05T20:55:18.734Z,29.27
2023-02-05T20:57:47.005Z,32.17
2023-02-05T21:00:15.928Z,35.77
2023-02-05T21:02:44.158Z,32.80
2023-02-05T21:05:12.384Z,38.83
2023-02-05T21:07:41.965Z,37.30
2023-02-05T21:10:10.894Z,31.97
2023-02-05T21:12:39.367Z,31.13
2023-02-05T21:15:08.301Z,29.10
2023-02-05T21:17:37.526Z,29.73
2023-02-05T21:20:06.121Z,28.63
2023-02-05T21:22:34.363Z,29.77
2023-02-05T21:25:04.026Z,30.17
2023-02-05T21:27:32.276Z,30.10
2023-02-05T21:30:00.568Z,26.67
2023-02-05T21:32:30.675Z,27.43
2023-02-05T21:34:59.002Z,26.47
2023-02-05T21:37:27.240Z,28.63
2023-02-05T21:40:08.491Z,30.87
2023-02-05T21:42:39.040Z,31.00
2023-02-05T21:45:08.209Z,28.20
2023-02-05T21:47:36.617Z,26.20
2023-02-05T21:50:05.809Z,28.40
2023-02-05T21:52:34.041Z,25.97
2023-02-05T21:55:02.260Z,25.00
2023-02-05T21:57:30.517Z,23.37
2023-02-05T22:00:00.323Z,25.93
2023-02-05T22:02:28.810Z,26.60
2023-02-05T22:04:57.012Z,24.90
2023-02-05T22:07:26.249Z,24.80
2023-02-05T22:09:54.475Z,24.80
2023-02-05T22:12:22.814Z,25.20
2023-02-05T22:14:51.235Z,25.03
2023-02-05T22:17:20.874Z,26.70
2023-02-05T22:19:49.185Z,26.57
2023-02-05T22:22:17.462Z,27.80
2023-02-05T22:24:45.713Z,37.10
2023-02-05T22:27:14.198Z,39.70
2023-02-05T22:29:42.465Z,41.87
2023-02-05T22:32:11.456Z,44.37
2023-02-05T22:34:43.439Z,49.97
2023-02-05T22:37:11.930Z,43.87
2023-02-05T22:39:40.229Z,40.97
2023-02-05T22:42:08.486Z,40.70
2023-02-05T22:44:36.872Z,38.67
2023-02-05T22:47:05.407Z,39.47
2023-02-05T22:49:33.648Z,40.03
2023-02-05T22:52:03.541Z,39.37
2023-02-05T22:54:31.784Z,40.00
2023-02-05T22:57:00.036Z,39.83
2023-02-05T22:59:29.488Z,40.17
2023-02-05T23:01:57.743Z,38.47
2023-02-05T23:04:25.941Z,37.83
